Gandsi, Mississippi
Current Conditions -  °F | °C
As of 9:15 AM on Friday 31 Oct 2014 (Local Time) from KPIB Reporting Station
Clear Clear  
Wind Chill: 13°   Ceiling: Unl
Heat Index: 13°   Visibility: 10mi
Dew Point:   Wind: 6mph
Humidity: 67%   Direction: 290°WNW
Pressure: 30.04"   Gusts: NA
Location:  31.5166°N, 89.4877°W
Report Text: KPIB 311415Z AUTO 29005KT 10SM CLR 13/07 A3004 RMK AO1
Loading
Personal Weather Stations






























Interactive Weather Map
Tropical Storm Tracking
New forecast layout! Learn more

10-Day Weather Forecast

Advertisements
Track Severe Weather on mobile